sensor_id;sensor_type;location;lat;lon;timestamp;P1;durP1;ratioP1;P2;durP2;ratioP2
18336;SDS011;9294;51.106;7.028;2023-08-08T00:02:10;1.38;;;1.38;;
18336;SDS011;9294;51.106;7.028;2023-08-08T00:04:36;1.27;;;1.27;;
18336;SDS011;9294;51.106;7.028;2023-08-08T00:07:03;1.52;;;1.52;;
18336;SDS011;9294;51.106;7.028;2023-08-08T00:09:32;1.50;;;1.42;;
18336;SDS011;9294;51.106;7.028;2023-08-08T00:11:59;1.38;;;1.38;;
18336;SDS011;9294;51.106;7.028;2023-08-08T00:14:25;1.52;;;1.52;;
18336;SDS011;9294;51.106;7.028;2023-08-08T00:16:52;1.42;;;1.42;;
18336;SDS011;9294;51.106;7.028;2023-08-08T00:19:19;1.13;;;1.13;;
18336;SDS011;9294;51.106;7.028;2023-08-08T00:21:46;1.40;;;1.40;;
18336;SDS011;9294;51.106;7.028;2023-08-08T00:24:12;1.70;;;1.70;;
18336;SDS011;9294;51.106;7.028;2023-08-08T00:26:41;1.50;;;1.50;;
18336;SDS011;9294;51.106;7.028;2023-08-08T00:29:08;1.30;;;1.30;;
18336;SDS011;9294;51.106;7.028;2023-08-08T00:31:34;1.33;;;1.33;;
18336;SDS011;9294;51.106;7.028;2023-08-08T00:34:01;1.30;;;1.30;;
18336;SDS011;9294;51.106;7.028;2023-08-08T00:36:28;1.20;;;1.20;;
18336;SDS011;9294;51.106;7.028;2023-08-08T00:38:55;1.15;;;1.15;;
18336;SDS011;9294;51.106;7.028;2023-08-08T00:41:21;1.52;;;1.42;;
18336;SDS011;9294;51.106;7.028;2023-08-08T00:43:49;1.20;;;1.20;;
18336;SDS011;9294;51.106;7.028;2023-08-08T00:46:16;1.35;;;1.35;;
18336;SDS011;9294;51.106;7.028;2023-08-08T00:48:44;1.25;;;1.25;;
18336;SDS011;9294;51.106;7.028;2023-08-08T00:51:11;1.38;;;1.38;;
18336;SDS011;9294;51.106;7.028;2023-08-08T00:53:38;1.30;;;1.30;;
18336;SDS011;9294;51.106;7.028;2023-08-08T00:56:04;1.08;;;1.08;;
18336;SDS011;9294;51.106;7.028;2023-08-08T00:58:31;1.25;;;1.25;;
18336;SDS011;9294;51.106;7.028;2023-08-08T01:00:59;1.27;;;1.27;;
18336;SDS011;9294;51.106;7.028;2023-08-08T01:03:26;1.33;;;1.33;;
18336;SDS011;9294;51.106;7.028;2023-08-08T01:05:57;1.10;;;1.10;;
18336;SDS011;9294;51.106;7.028;2023-08-08T01:08:29;1.40;;;1.30;;
18336;SDS011;9294;51.106;7.028;2023-08-08T01:11:01;1.20;;;1.20;;
18336;SDS011;9294;51.106;7.028;2023-08-08T01:13:29;1.52;;;1.52;;
18336;SDS011;9294;51.106;7.028;2023-08-08T01:15:57;1.20;;;1.20;;
18336;SDS011;9294;51.106;7.028;2023-08-08T01:18:28;1.50;;;1.50;;
18336;SDS011;9294;51.106;7.028;2023-08-08T01:20:55;1.50;;;1.50;;
18336;SDS011;9294;51.106;7.028;2023-08-08T01:23:24;1.15;;;1.15;;
18336;SDS011;9294;51.106;7.028;2023-08-08T01:25:57;1.20;;;1.20;;
18336;SDS011;9294;51.106;7.028;2023-08-08T01:28:24;1.23;;;1.23;;
18336;SDS011;9294;51.106;7.028;2023-08-08T01:30:51;1.45;;;1.45;;
18336;SDS011;9294;51.106;7.028;2023-08-08T01:33:19;1.40;;;1.40;;
18336;SDS011;9294;51.106;7.028;2023-08-08T01:35:46;1.20;;;1.20;;
18336;SDS011;9294;51.106;7.028;2023-08-08T01:38:17;1.58;;;1.58;;
18336;SDS011;9294;51.106;7.028;2023-08-08T01:40:47;1.30;;;1.30;;
18336;SDS011;9294;51.106;7.028;2023-08-08T01:43:15;1.40;;;1.40;;
18336;SDS011;9294;51.106;7.028;2023-08-08T01:45:43;1.40;;;1.40;;
18336;SDS011;9294;51.106;7.028;2023-08-08T01:48:10;1.80;;;1.70;;
18336;SDS011;9294;51.106;7.028;2023-08-08T01:50:37;1.30;;;1.30;;
18336;SDS011;9294;51.106;7.028;2023-08-08T01:53:04;1.50;;;1.50;;
18336;SDS011;9294;51.106;7.028;2023-08-08T01:55:31;1.40;;;1.40;;
18336;SDS011;9294;51.106;7.028;2023-08-08T01:57:58;1.30;;;1.30;;
18336;SDS011;9294;51.106;7.028;2023-08-08T02:00:26;1.27;;;1.27;;
18336;SDS011;9294;51.106;7.028;2023-08-08T02:02:52;1.50;;;1.40;;
18336;SDS011;9294;51.106;7.028;2023-08-08T02:05:19;1.63;;;1.63;;
18336;SDS011;9294;51.106;7.028;2023-08-08T02:07:46;1.40;;;1.40;;
18336;SDS011;9294;51.106;7.028;2023-08-08T02:10:13;1.52;;;1.52;;
18336;SDS011;9294;51.106;7.028;2023-08-08T02:12:39;1.30;;;1.30;;
18336;SDS011;9294;51.106;7.028;2023-08-08T02:15:06;1.27;;;1.20;;
18336;SDS011;9294;51.106;7.028;2023-08-08T02:17:35;1.52;;;1.42;;
18336;SDS011;9294;51.106;7.028;2023-08-08T02:20:04;1.20;;;1.20;;
18336;SDS011;9294;51.106;7.028;2023-08-08T02:22:31;1.25;;;1.25;;
18336;SDS011;9294;51.106;7.028;2023-08-08T02:24:58;1.20;;;1.20;;
18336;SDS011;9294;51.106;7.028;2023-08-08T02:27:24;1.20;;;1.20;;
18336;SDS011;9294;51.106;7.028;2023-08-08T02:29:51;1.13;;;1.13;;
18336;SDS011;9294;51.106;7.028;2023-08-08T02:32:18;1.35;;;1.35;;
18336;SDS011;9294;51.106;7.028;2023-08-08T02:34:46;1.65;;;1.55;;
18336;SDS011;9294;51.106;7.028;2023-08-08T02:37:12;1.40;;;1.40;;
18336;SDS011;9294;51.106;7.028;2023-08-08T02:39:39;1.15;;;1.15;;
18336;SDS011;9294;51.106;7.028;2023-08-08T02:42:07;1.10;;;1.10;;
18336;SDS011;9294;51.106;7.028;2023-08-08T02:44:34;1.38;;;1.38;;
18336;SDS011;9294;51.106;7.028;2023-08-08T02:47:00;1.30;;;1.30;;
18336;SDS011;9294;51.106;7.028;2023-08-08T02:49:27;1.42;;;1.40;;
18336;SDS011;9294;51.106;7.028;2023-08-08T02:51:56;1.08;;;1.08;;
18336;SDS011;9294;51.106;7.028;2023-08-08T02:54:22;1.48;;;1.48;;
18336;SDS011;9294;51.106;7.028;2023-08-08T02:56:49;1.30;;;1.30;;
18336;SDS011;9294;51.106;7.028;2023-08-08T02:59:16;1.05;;;1.05;;
18336;SDS011;9294;51.106;7.028;2023-08-08T03:01:42;1.52;;;1.25;;
18336;SDS011;9294;51.106;7.028;2023-08-08T03:04:10;1.27;;;1.27;;
18336;SDS011;9294;51.106;7.028;2023-08-08T03:06:36;1.40;;;1.40;;
18336;SDS011;9294;51.106;7.028;2023-08-08T03:09:04;1.13;;;1.13;;
18336;SDS011;9294;51.106;7.028;2023-08-08T03:11:32;1.27;;;1.27;;
18336;SDS011;9294;51.106;7.028;2023-08-08T03:13:58;1.17;;;1.17;;
18336;SDS011;9294;51.106;7.028;2023-08-08T03:16:25;1.40;;;1.40;;
18336;SDS011;9294;51.106;7.028;2023-08-08T03:18:52;1.40;;;1.40;;
18336;SDS011;9294;51.106;7.028;2023-08-08T03:21:18;1.42;;;1.42;;
18336;SDS011;9294;51.106;7.028;2023-08-08T03:23:45;1.20;;;1.20;;
18336;SDS011;9294;51.106;7.028;2023-08-08T03:26:13;1.17;;;1.17;;
18336;SDS011;9294;51.106;7.028;2023-08-08T03:28:40;1.42;;;1.40;;
18336;SDS011;9294;51.106;7.028;2023-08-08T03:31:06;1.10;;;1.10;;
18336;SDS011;9294;51.106;7.028;2023-08-08T03:33:33;1.23;;;1.23;;
18336;SDS011;9294;51.106;7.028;2023-08-08T03:36:00;1.40;;;1.40;;
18336;SDS011;9294;51.106;7.028;2023-08-08T03:38:26;1.48;;;1.48;;
18336;SDS011;9294;51.106;7.028;2023-08-08T03:40:53;1.27;;;1.27;;
18336;SDS011;9294;51.106;7.028;2023-08-08T03:43:21;1.02;;;1.02;;
18336;SDS011;9294;51.106;7.028;2023-08-08T03:45:48;1.30;;;1.30;;
18336;SDS011;9294;51.106;7.028;2023-08-08T03:48:15;1.13;;;1.13;;
18336;SDS011;9294;51.106;7.028;2023-08-08T03:50:41;1.40;;;1.40;;
18336;SDS011;9294;51.106;7.028;2023-08-08T03:53:08;1.40;;;1.40;;
18336;SDS011;9294;51.106;7.028;2023-08-08T03:55:35;1.10;;;1.10;;
18336;SDS011;9294;51.106;7.028;2023-08-08T03:58:01;1.20;;;1.20;;
18336;SDS011;9294;51.106;7.028;2023-08-08T04:00:30;1.10;;;1.10;;
18336;SDS011;9294;51.106;7.028;2023-08-08T04:02:56;1.20;;;1.20;;
18336;SDS011;9294;51.106;7.028;2023-08-08T04:05:23;1.52;;;1.50;;
18336;SDS011;9294;51.106;7.028;2023-08-08T04:07:50;1.10;;;1.10;;
18336;SDS011;9294;51.106;7.028;2023-08-08T04:10:16;1.10;;;1.10;;
18336;SDS011;9294;51.106;7.028;2023-08-08T04:12:43;1.27;;;1.27;;
18336;SDS011;9294;51.106;7.028;2023-08-08T04:15:10;1.25;;;1.25;;
18336;SDS011;9294;51.106;7.028;2023-08-08T04:17:38;1.20;;;1.20;;
18336;SDS011;9294;51.106;7.028;2023-08-08T04:20:05;1.48;;;1.48;;
18336;SDS011;9294;51.106;7.028;2023-08-08T04:22:32;1.33;;;1.33;;
18336;SDS011;9294;51.106;7.028;2023-08-08T04:25:00;1.05;;;1.05;;
18336;SDS011;9294;51.106;7.028;2023-08-08T04:27:27;1.40;;;1.40;;
18336;SDS011;9294;51.106;7.028;2023-08-08T04:29:54;1.20;;;1.20;;
18336;SDS011;9294;51.106;7.028;2023-08-08T04:32:20;1.20;;;1.20;;
18336;SDS011;9294;51.106;7.028;2023-08-08T04:34:48;1.23;;;1.23;;
18336;SDS011;9294;51.106;7.028;2023-08-08T04:37:15;1.10;;;1.10;;
18336;SDS011;9294;51.106;7.028;2023-08-08T04:39:42;1.35;;;1.35;;
18336;SDS011;9294;51.106;7.028;2023-08-08T04:42:08;1.20;;;1.20;;
18336;SDS011;9294;51.106;7.028;2023-08-08T04:44:35;1.10;;;1.10;;
18336;SDS011;9294;51.106;7.028;2023-08-08T04:47:02;1.60;;;1.60;;
18336;SDS011;9294;51.106;7.028;2023-08-08T04:49:29;1.50;;;1.40;;
18336;SDS011;9294;51.106;7.028;2023-08-08T04:51:57;1.40;;;1.40;;
18336;SDS011;9294;51.106;7.028;2023-08-08T04:54:23;1.30;;;1.30;;
18336;SDS011;9294;51.106;7.028;2023-08-08T04:56:50;2.00;;;1.77;;
18336;SDS011;9294;51.106;7.028;2023-08-08T04:59:17;1.38;;;1.38;;
18336;SDS011;9294;51.106;7.028;2023-08-08T05:01:43;2.63;;;1.80;;
18336;SDS011;9294;51.106;7.028;2023-08-08T05:04:10;2.53;;;1.52;;
18336;SDS011;9294;51.106;7.028;2023-08-08T05:06:37;1.40;;;1.40;;
18336;SDS011;9294;51.106;7.028;2023-08-08T05:09:05;1.35;;;1.35;;
18336;SDS011;9294;51.106;7.028;2023-08-08T05:11:34;1.30;;;1.27;;
18336;SDS011;9294;51.106;7.028;2023-08-08T05:14:01;1.40;;;1.40;;
18336;SDS011;9294;51.106;7.028;2023-08-08T05:16:28;1.30;;;1.30;;
18336;SDS011;9294;51.106;7.028;2023-08-08T05:18:54;1.50;;;1.50;;
18336;SDS011;9294;51.106;7.028;2023-08-08T05:21:21;1.20;;;1.20;;
18336;SDS011;9294;51.106;7.028;2023-08-08T05:23:48;1.40;;;1.40;;
18336;SDS011;9294;51.106;7.028;2023-08-08T05:26:16;1.17;;;1.17;;
18336;SDS011;9294;51.106;7.028;2023-08-08T05:28:43;1.70;;;1.70;;
18336;SDS011;9294;51.106;7.028;2023-08-08T05:31:10;1.52;;;1.52;;
18336;SDS011;9294;51.106;7.028;2023-08-08T05:33:36;1.42;;;1.42;;
18336;SDS011;9294;51.106;7.028;2023-08-08T05:36:03;1.33;;;1.33;;
18336;SDS011;9294;51.106;7.028;2023-08-08T05:38:30;1.50;;;1.50;;
18336;SDS011;9294;51.106;7.028;2023-08-08T05:40:57;1.30;;;1.30;;
18336;SDS011;9294;51.106;7.028;2023-08-08T05:43:25;1.50;;;1.40;;
18336;SDS011;9294;51.106;7.028;2023-08-08T05:45:52;1.30;;;1.30;;
18336;SDS011;9294;51.106;7.028;2023-08-08T05:48:19;1.30;;;1.30;;
18336;SDS011;9294;51.106;7.028;2023-08-08T05:50:46;1.35;;;1.35;;
18336;SDS011;9294;51.106;7.028;2023-08-08T05:53:12;1.63;;;1.63;;
18336;SDS011;9294;51.106;7.028;2023-08-08T05:55:40;1.50;;;1.50;;
18336;SDS011;9294;51.106;7.028;2023-08-08T05:58:07;1.40;;;1.30;;
18336;SDS011;9294;51.106;7.028;2023-08-08T06:00:35;1.50;;;1.50;;
18336;SDS011;9294;51.106;7.028;2023-08-08T06:03:01;1.30;;;1.30;;
18336;SDS011;9294;51.106;7.028;2023-08-08T06:05:28;1.35;;;1.35;;
18336;SDS011;9294;51.106;7.028;2023-08-08T06:07:55;1.55;;;1.55;;
18336;SDS011;9294;51.106;7.028;2023-08-08T06:10:22;1.30;;;1.30;;
18336;SDS011;9294;51.106;7.028;2023-08-08T06:12:50;1.40;;;1.30;;
18336;SDS011;9294;51.106;7.028;2023-08-08T06:15:17;1.20;;;1.20;;
18336;SDS011;9294;51.106;7.028;2023-08-08T06:17:45;1.27;;;1.27;;
18336;SDS011;9294;51.106;7.028;2023-08-08T06:20:12;1.40;;;1.40;;
18336;SDS011;9294;51.106;7.028;2023-08-08T06:22:38;1.27;;;1.27;;
18336;SDS011;9294;51.106;7.028;2023-08-08T06:25:05;1.40;;;1.40;;
18336;SDS011;9294;51.106;7.028;2023-08-08T06:27:32;1.58;;;1.48;;
18336;SDS011;9294;51.106;7.028;2023-08-08T06:29:59;1.42;;;1.42;;
18336;SDS011;9294;51.106;7.028;2023-08-08T06:32:28;1.83;;;1.70;;
18336;SDS011;9294;51.106;7.028;2023-08-08T06:34:56;1.23;;;1.23;;
18336;SDS011;9294;51.106;7.028;2023-08-08T06:37:23;1.40;;;1.30;;
18336;SDS011;9294;51.106;7.028;2023-08-08T06:39:49;1.38;;;1.38;;
18336;SDS011;9294;51.106;7.028;2023-08-08T06:42:16;1.38;;;1.38;;
18336;SDS011;9294;51.106;7.028;2023-08-08T06:44:43;1.65;;;1.65;;
18336;SDS011;9294;51.106;7.028;2023-08-08T06:47:10;1.30;;;1.30;;
18336;SDS011;9294;51.106;7.028;2023-08-08T06:49:37;1.33;;;1.33;;
18336;SDS011;9294;51.106;7.028;2023-08-08T06:52:06;1.60;;;1.60;;
18336;SDS011;9294;51.106;7.028;2023-08-08T06:54:33;1.23;;;1.23;;
18336;SDS011;9294;51.106;7.028;2023-08-08T06:56:59;1.65;;;1.45;;
18336;SDS011;9294;51.106;7.028;2023-08-08T06:59:27;1.40;;;1.30;;
18336;SDS011;9294;51.106;7.028;2023-08-08T07:01:53;1.75;;;1.67;;
18336;SDS011;9294;51.106;7.028;2023-08-08T07:04:21;1.40;;;1.40;;
18336;SDS011;9294;51.106;7.028;2023-08-08T07:06:48;1.60;;;1.60;;
18336;SDS011;9294;51.106;7.028;2023-08-08T07:09:16;1.45;;;1.45;;
18336;SDS011;9294;51.106;7.028;2023-08-08T07:11:43;1.58;;;1.48;;
18336;SDS011;9294;51.106;7.028;2023-08-08T07:14:10;1.30;;;1.30;;
18336;SDS011;9294;51.106;7.028;2023-08-08T07:16:36;1.27;;;1.25;;
18336;SDS011;9294;51.106;7.028;2023-08-08T07:19:03;1.45;;;1.45;;
18336;SDS011;9294;51.106;7.028;2023-08-08T07:21:31;1.45;;;1.45;;
18336;SDS011;9294;51.106;7.028;2023-08-08T07:23:57;1.55;;;1.55;;
18336;SDS011;9294;51.106;7.028;2023-08-08T07:26:25;1.38;;;1.27;;
18336;SDS011;9294;51.106;7.028;2023-08-08T07:28:52;1.65;;;1.65;;
18336;SDS011;9294;51.106;7.028;2023-08-08T07:31:19;1.77;;;1.73;;
18336;SDS011;9294;51.106;7.028;2023-08-08T07:33:46;1.73;;;1.52;;
18336;SDS011;9294;51.106;7.028;2023-08-08T07:36:12;2.85;;;1.73;;
18336;SDS011;9294;51.106;7.028;2023-08-08T07:38:39;1.70;;;1.60;;
18336;SDS011;9294;51.106;7.028;2023-08-08T07:41:06;1.80;;;1.70;;
18336;SDS011;9294;51.106;7.028;2023-08-08T07:43:34;1.77;;;1.67;;
18336;SDS011;9294;51.106;7.028;2023-08-08T07:46:00;2.53;;;1.83;;
18336;SDS011;9294;51.106;7.028;2023-08-08T07:48:27;1.65;;;1.60;;
18336;SDS011;9294;51.106;7.028;2023-08-08T07:50:54;1.83;;;1.73;;
18336;SDS011;9294;51.106;7.028;2023-08-08T07:53:21;1.80;;;1.70;;
18336;SDS011;9294;51.106;7.028;2023-08-08T07:55:47;1.85;;;1.75;;
18336;SDS011;9294;51.106;7.028;2023-08-08T07:58:14;1.88;;;1.77;;
18336;SDS011;9294;51.106;7.028;2023-08-08T08:00:42;2.55;;;1.63;;
18336;SDS011;9294;51.106;7.028;2023-08-08T08:03:09;2.58;;;2.05;;
18336;SDS011;9294;51.106;7.028;2023-08-08T08:05:36;2.83;;;1.70;;
18336;SDS011;9294;51.106;7.028;2023-08-08T08:08:03;3.20;;;1.70;;
18336;SDS011;9294;51.106;7.028;2023-08-08T08:10:30;2.67;;;1.70;;
18336;SDS011;9294;51.106;7.028;2023-08-08T08:12:57;2.97;;;2.00;;
18336;SDS011;9294;51.106;7.028;2023-08-08T08:15:23;1.52;;;1.42;;
18336;SDS011;9294;51.106;7.028;2023-08-08T08:17:52;5.88;;;2.22;;
18336;SDS011;9294;51.106;7.028;2023-08-08T08:20:19;2.30;;;1.98;;
18336;SDS011;9294;51.106;7.028;2023-08-08T08:22:46;1.75;;;1.65;;
18336;SDS011;9294;51.106;7.028;2023-08-08T08:25:13;2.83;;;2.08;;
18336;SDS011;9294;51.106;7.028;2023-08-08T08:27:40;2.22;;;2.00;;
18336;SDS011;9294;51.106;7.028;2023-08-08T08:30:07;2.88;;;1.77;;
18336;SDS011;9294;51.106;7.028;2023-08-08T08:32:35;4.78;;;2.10;;
18336;SDS011;9294;51.106;7.028;2023-08-08T08:35:04;3.45;;;1.88;;
18336;SDS011;9294;51.106;7.028;2023-08-08T08:37:33;3.92;;;2.05;;
18336;SDS011;9294;51.106;7.028;2023-08-08T08:40:00;4.10;;;2.45;;
18336;SDS011;9294;51.106;7.028;2023-08-08T08:42:29;5.38;;;2.60;;
18336;SDS011;9294;51.106;7.028;2023-08-08T08:44:58;5.35;;;2.05;;
18336;SDS011;9294;51.106;7.028;2023-08-08T08:47:25;3.63;;;2.25;;
18336;SDS011;9294;51.106;7.028;2023-08-08T08:49:54;3.33;;;2.20;;
18336;SDS011;9294;51.106;7.028;2023-08-08T08:52:23;4.43;;;1.85;;
18336;SDS011;9294;51.106;7.028;2023-08-08T08:54:50;5.32;;;2.38;;
18336;SDS011;9294;51.106;7.028;2023-08-08T08:57:17;3.22;;;2.20;;
18336;SDS011;9294;51.106;7.028;2023-08-08T08:59:45;5.82;;;2.15;;
18336;SDS011;9294;51.106;7.028;2023-08-08T09:02:12;3.90;;;2.25;;
18336;SDS011;9294;51.106;7.028;2023-08-08T09:04:39;5.93;;;2.38;;
18336;SDS011;9294;51.106;7.028;2023-08-08T09:07:06;4.53;;;2.40;;
18336;SDS011;9294;51.106;7.028;2023-08-08T09:09:36;3.35;;;2.13;;
18336;SDS011;9294;51.106;7.028;2023-08-08T09:12:03;3.25;;;2.10;;
18336;SDS011;9294;51.106;7.028;2023-08-08T09:14:31;3.63;;;2.20;;
18336;SDS011;9294;51.106;7.028;2023-08-08T09:16:57;4.70;;;2.20;;
18336;SDS011;9294;51.106;7.028;2023-08-08T09:19:25;6.38;;;2.80;;
18336;SDS011;9294;51.106;7.028;2023-08-08T09:21:51;3.30;;;2.20;;
18336;SDS011;9294;51.106;7.028;2023-08-08T09:24:19;3.38;;;2.08;;
18336;SDS011;9294;51.106;7.028;2023-08-08T09:26:47;2.05;;;1.83;;
18336;SDS011;9294;51.106;7.028;2023-08-08T09:29:14;3.25;;;2.13;;
18336;SDS011;9294;51.106;7.028;2023-08-08T09:31:41;2.97;;;2.13;;
18336;SDS011;9294;51.106;7.028;2023-08-08T09:34:08;5.18;;;2.38;;
18336;SDS011;9294;51.106;7.028;2023-08-08T09:36:35;2.47;;;2.22;;
18336;SDS011;9294;51.106;7.028;2023-08-08T09:39:02;3.05;;;2.20;;
18336;SDS011;9294;51.106;7.028;2023-08-08T09:41:29;4.72;;;2.35;;
18336;SDS011;9294;51.106;7.028;2023-08-08T09:43:58;3.00;;;2.55;;
18336;SDS011;9294;51.106;7.028;2023-08-08T09:46:25;3.95;;;2.25;;
18336;SDS011;9294;51.106;7.028;2023-08-08T09:48:52;3.15;;;2.60;;
18336;SDS011;9294;51.106;7.028;2023-08-08T09:51:19;2.40;;;2.20;;
18336;SDS011;9294;51.106;7.028;2023-08-08T09:53:47;3.13;;;2.70;;
18336;SDS011;9294;51.106;7.028;2023-08-08T09:56:15;5.63;;;3.05;;
18336;SDS011;9294;51.106;7.028;2023-08-08T09:58:42;2.72;;;2.30;;
18336;SDS011;9294;51.106;7.028;2023-08-08T10:01:10;4.28;;;2.33;;
18336;SDS011;9294;51.106;7.028;2023-08-08T10:03:38;5.47;;;2.85;;
18336;SDS011;9294;51.106;7.028;2023-08-08T10:06:08;2.92;;;2.70;;
18336;SDS011;9294;51.106;7.028;2023-08-08T10:08:35;3.05;;;2.70;;
18336;SDS011;9294;51.106;7.028;2023-08-08T10:11:02;3.50;;;2.60;;
18336;SDS011;9294;51.106;7.028;2023-08-08T10:13:31;5.30;;;2.65;;
18336;SDS011;9294;51.106;7.028;2023-08-08T10:16:03;8.30;;;3.03;;
18336;SDS011;9294;51.106;7.028;2023-08-08T10:18:34;3.00;;;2.50;;
18336;SDS011;9294;51.106;7.028;2023-08-08T10:21:03;6.93;;;2.83;;
18336;SDS011;9294;51.106;7.028;2023-08-08T10:23:34;3.78;;;2.65;;
18336;SDS011;9294;51.106;7.028;2023-08-08T10:26:02;4.78;;;3.25;;
18336;SDS011;9294;51.106;7.028;2023-08-08T10:28:29;6.00;;;4.70;;
18336;SDS011;9294;51.106;7.028;2023-08-08T10:31:00;12.20;;;8.45;;
18336;SDS011;9294;51.106;7.028;2023-08-08T10:33:40;13.68;;;9.90;;
18336;SDS011;9294;51.106;7.028;2023-08-08T10:36:08;16.33;;;11.27;;
18336;SDS011;9294;51.106;7.028;2023-08-08T10:38:39;19.83;;;12.18;;
18336;SDS011;9294;51.106;7.028;2023-08-08T10:41:08;18.98;;;14.45;;
18336;SDS011;9294;51.106;7.028;2023-08-08T10:43:36;24.40;;;14.63;;
18336;SDS011;9294;51.106;7.028;2023-08-08T10:46:03;28.58;;;17.17;;
18336;SDS011;9294;51.106;7.028;2023-08-08T10:48:30;28.77;;;17.63;;
18336;SDS011;9294;51.106;7.028;2023-08-08T10:50:58;23.88;;;17.15;;
18336;SDS011;9294;51.106;7.028;2023-08-08T10:53:26;23.38;;;17.35;;
18336;SDS011;9294;51.106;7.028;2023-08-08T10:55:57;26.02;;;17.85;;
18336;SDS011;9294;51.106;7.028;2023-08-08T10:58:34;28.02;;;18.70;;
18336;SDS011;9294;51.106;7.028;2023-08-08T11:01:02;28.85;;;19.40;;
18336;SDS011;9294;51.106;7.028;2023-08-08T11:03:32;25.38;;;18.38;;
18336;SDS011;9294;51.106;7.028;2023-08-08T11:06:02;30.55;;;18.75;;
18336;SDS011;9294;51.106;7.028;2023-08-08T11:08:30;32.30;;;17.23;;
18336;SDS011;9294;51.106;7.028;2023-08-08T11:10:58;27.83;;;17.55;;
18336;SDS011;9294;51.106;7.028;2023-08-08T11:13:25;23.42;;;16.95;;
18336;SDS011;9294;51.106;7.028;2023-08-08T11:15:52;24.50;;;17.50;;
18336;SDS011;9294;51.106;7.028;2023-08-08T11:18:19;28.85;;;16.70;;
18336;SDS011;9294;51.106;7.028;2023-08-08T11:20:46;26.88;;;16.63;;
18336;SDS011;9294;51.106;7.028;2023-08-08T11:23:14;21.73;;;15.70;;
18336;SDS011;9294;51.106;7.028;2023-08-08T11:25:42;24.92;;;14.82;;
18336;SDS011;9294;51.106;7.028;2023-08-08T11:28:10;22.33;;;15.45;;
18336;SDS011;9294;51.106;7.028;2023-08-08T11:30:38;22.98;;;14.15;;
18336;SDS011;9294;51.106;7.028;2023-08-08T11:33:08;19.58;;;14.02;;
18336;SDS011;9294;51.106;7.028;2023-08-08T11:35:35;24.33;;;14.07;;
18336;SDS011;9294;51.106;7.028;2023-08-08T11:38:03;22.77;;;14.38;;
18336;SDS011;9294;51.106;7.028;2023-08-08T11:40:32;19.10;;;13.00;;
18336;SDS011;9294;51.106;7.028;2023-08-08T11:42:59;20.55;;;11.82;;
18336;SDS011;9294;51.106;7.028;2023-08-08T11:45:26;19.00;;;12.95;;
18336;SDS011;9294;51.106;7.028;2023-08-08T11:47:53;19.17;;;12.35;;
18336;SDS011;9294;51.106;7.028;2023-08-08T11:50:21;17.67;;;11.95;;
18336;SDS011;9294;51.106;7.028;2023-08-08T11:52:50;16.55;;;10.98;;
18336;SDS011;9294;51.106;7.028;2023-08-08T11:55:18;18.30;;;10.80;;
18336;SDS011;9294;51.106;7.028;2023-08-08T11:57:48;17.10;;;10.20;;
18336;SDS011;9294;51.106;7.028;2023-08-08T12:00:16;13.63;;;9.75;;
18336;SDS011;9294;51.106;7.028;2023-08-08T12:02:43;11.65;;;8.50;;
18336;SDS011;9294;51.106;7.028;2023-08-08T12:05:11;12.77;;;10.07;;
18336;SDS011;9294;51.106;7.028;2023-08-08T12:07:41;12.70;;;9.15;;
18336;SDS011;9294;51.106;7.028;2023-08-08T12:10:14;12.77;;;8.77;;
18336;SDS011;9294;51.106;7.028;2023-08-08T12:12:43;14.10;;;8.82;;
18336;SDS011;9294;51.106;7.028;2023-08-08T12:15:11;10.43;;;8.70;;
18336;SDS011;9294;51.106;7.028;2023-08-08T12:17:38;11.00;;;8.40;;
18336;SDS011;9294;51.106;7.028;2023-08-08T12:20:05;14.25;;;7.70;;
18336;SDS011;9294;51.106;7.028;2023-08-08T12:22:34;10.43;;;8.32;;
18336;SDS011;9294;51.106;7.028;2023-08-08T12:25:00;8.73;;;7.53;;
18336;SDS011;9294;51.106;7.028;2023-08-08T12:27:28;11.77;;;7.30;;
18336;SDS011;9294;51.106;7.028;2023-08-08T12:29:55;11.50;;;7.45;;
18336;SDS011;9294;51.106;7.028;2023-08-08T12:32:25;9.50;;;7.28;;
18336;SDS011;9294;51.106;7.028;2023-08-08T12:34:53;8.25;;;6.90;;
18336;SDS011;9294;51.106;7.028;2023-08-08T12:37:21;6.85;;;6.18;;
18336;SDS011;9294;51.106;7.028;2023-08-08T12:39:48;9.15;;;7.22;;
18336;SDS011;9294;51.106;7.028;2023-08-08T12:42:15;8.02;;;6.35;;
18336;SDS011;9294;51.106;7.028;2023-08-08T12:44:42;9.45;;;7.20;;
18336;SDS011;9294;51.106;7.028;2023-08-08T12:47:08;7.32;;;6.43;;
18336;SDS011;9294;51.106;7.028;2023-08-08T12:49:37;7.05;;;5.60;;
18336;SDS011;9294;51.106;7.028;2023-08-08T12:52:04;7.90;;;7.18;;
18336;SDS011;9294;51.106;7.028;2023-08-08T12:54:31;10.05;;;6.50;;
18336;SDS011;9294;51.106;7.028;2023-08-08T12:56:57;6.15;;;5.55;;
18336;SDS011;9294;51.106;7.028;2023-08-08T12:59:24;6.50;;;5.80;;
18336;SDS011;9294;51.106;7.028;2023-08-08T13:01:51;8.27;;;6.43;;
18336;SDS011;9294;51.106;7.028;2023-08-08T13:04:17;6.93;;;5.38;;
18336;SDS011;9294;51.106;7.028;2023-08-08T13:06:46;7.13;;;6.10;;
18336;SDS011;9294;51.106;7.028;2023-08-08T13:09:13;6.88;;;6.18;;
18336;SDS011;9294;51.106;7.028;2023-08-08T13:11:40;7.85;;;6.40;;
18336;SDS011;9294;51.106;7.028;2023-08-08T13:14:07;7.57;;;6.25;;
18336;SDS011;9294;51.106;7.028;2023-08-08T13:16:34;8.43;;;5.97;;
18336;SDS011;9294;51.106;7.028;2023-08-08T13:19:01;5.35;;;4.82;;
18336;SDS011;9294;51.106;7.028;2023-08-08T13:21:28;6.78;;;5.45;;
18336;SDS011;9294;51.106;7.028;2023-08-08T13:23:56;5.90;;;5.30;;
18336;SDS011;9294;51.106;7.028;2023-08-08T13:26:23;5.30;;;4.57;;
18336;SDS011;9294;51.106;7.028;2023-08-08T13:28:50;5.70;;;4.72;;
18336;SDS011;9294;51.106;7.028;2023-08-08T13:31:16;5.43;;;4.93;;
18336;SDS011;9294;51.106;7.028;2023-08-08T13:33:44;5.45;;;4.72;;
18336;SDS011;9294;51.106;7.028;2023-08-08T13:36:10;4.93;;;4.45;;
18336;SDS011;9294;51.106;7.028;2023-08-08T13:38:37;5.00;;;4.47;;
18336;SDS011;9294;51.106;7.028;2023-08-08T13:41:05;6.38;;;5.25;;
18336;SDS011;9294;51.106;7.028;2023-08-08T13:43:32;7.00;;;5.43;;
18336;SDS011;9294;51.106;7.028;2023-08-08T13:45:59;4.60;;;4.20;;
18336;SDS011;9294;51.106;7.028;2023-08-08T13:48:28;5.57;;;5.13;;
18336;SDS011;9294;51.106;7.028;2023-08-08T13:50:55;4.75;;;4.35;;
18336;SDS011;9294;51.106;7.028;2023-08-08T13:53:22;5.50;;;5.10;;
18336;SDS011;9294;51.106;7.028;2023-08-08T13:55:48;5.68;;;5.13;;
18336;SDS011;9294;51.106;7.028;2023-08-08T13:58:17;5.18;;;4.68;;
18336;SDS011;9294;51.106;7.028;2023-08-08T14:00:46;6.75;;;5.30;;
18336;SDS011;9294;51.106;7.028;2023-08-08T14:03:13;6.15;;;4.90;;
18336;SDS011;9294;51.106;7.028;2023-08-08T14:05:40;4.90;;;4.50;;
18336;SDS011;9294;51.106;7.028;2023-08-08T14:08:08;4.97;;;4.47;;
18336;SDS011;9294;51.106;7.028;2023-08-08T14:10:35;4.80;;;4.40;;
18336;SDS011;9294;51.106;7.028;2023-08-08T14:13:02;4.97;;;4.57;;
18336;SDS011;9294;51.106;7.028;2023-08-08T14:15:30;4.68;;;4.28;;
18336;SDS011;9294;51.106;7.028;2023-08-08T14:17:58;4.93;;;4.53;;
18336;SDS011;9294;51.106;7.028;2023-08-08T14:20:25;4.60;;;4.30;;
18336;SDS011;9294;51.106;7.028;2023-08-08T14:22:52;5.38;;;4.55;;
18336;SDS011;9294;51.106;7.028;2023-08-08T14:25:19;4.97;;;4.47;;
18336;SDS011;9294;51.106;7.028;2023-08-08T14:27:45;5.68;;;4.38;;
18336;SDS011;9294;51.106;7.028;2023-08-08T14:30:12;5.28;;;4.78;;
18336;SDS011;9294;51.106;7.028;2023-08-08T14:32:40;4.38;;;4.07;;
18336;SDS011;9294;51.106;7.028;2023-08-08T14:35:07;4.50;;;4.20;;
18336;SDS011;9294;51.106;7.028;2023-08-08T14:37:35;4.95;;;4.55;;
18336;SDS011;9294;51.106;7.028;2023-08-08T14:40:02;5.47;;;4.97;;
18336;SDS011;9294;51.106;7.028;2023-08-08T14:42:29;4.30;;;4.00;;
18336;SDS011;9294;51.106;7.028;2023-08-08T14:44:56;4.82;;;4.53;;
18336;SDS011;9294;51.106;7.028;2023-08-08T14:47:23;4.63;;;4.22;;
18336;SDS011;9294;51.106;7.028;2023-08-08T14:49:51;4.35;;;4.05;;
18336;SDS011;9294;51.106;7.028;2023-08-08T14:52:17;4.80;;;4.40;;
18336;SDS011;9294;51.106;7.028;2023-08-08T14:54:44;4.47;;;4.07;;
18336;SDS011;9294;51.106;7.028;2023-08-08T14:57:11;4.40;;;4.10;;
18336;SDS011;9294;51.106;7.028;2023-08-08T14:59:39;4.57;;;4.20;;